Moa, Cuba
Current Conditions -  °F | °C
As of 10:56 PM on Monday 22 Dec 2014 (Local Time) from MUGM Reporting Station
Clear Clear  
Wind Chill: 77°   Ceiling: Unl
Heat Index: 79°   Visibility: 6mi
Dew Point: 70°   Wind: 6mph
Humidity: 79%   Direction: 10°N
Pressure: 29.99"   Gusts: NA
Location:  20.66°N, 74.92°W
Report Text: MUGM 230256Z 01005KT 9999 CLR 25/21 A2999 RMK SLP153 T02500211 51010
Loading
Personal Weather Stations






























Interactive Weather Map New forecast layout! Learn more

10-Day Weather Forecast

Advertisements
Track Severe Weather on mobile